createdAt,value
2017-11-19T00:09:43.518Z,12.80
2017-11-19T00:19:46.737Z,13.27
2017-11-19T00:29:49.904Z,12.30
2017-11-19T00:39:53.102Z,11.40
2017-11-19T00:49:56.285Z,11.67
2017-11-19T00:59:59.600Z,12.60
2017-11-19T01:10:02.874Z,9.77
2017-11-19T01:20:06.063Z,12.30
2017-11-19T01:30:09.255Z,11.67
2017-11-19T01:40:13.216Z,11.20
2017-11-19T01:50:17.178Z,10.17
2017-11-19T02:00:21.136Z,11.00
2017-11-19T02:10:25.084Z,11.57
2017-11-19T02:20:29.022Z,12.30
2017-11-19T02:30:32.215Z,10.83
2017-11-19T02:40:35.411Z,11.60
2017-11-19T02:50:39.420Z,11.12
2017-11-19T03:00:42.625Z,11.73
2017-11-19T03:10:45.849Z,16.00
2017-11-19T03:20:49.024Z,14.07
2017-11-19T03:30:52.201Z,12.87
2017-11-19T03:40:55.413Z,15.30
2017-11-19T03:50:58.579Z,9.37
2017-11-19T04:01:01.777Z,3.30
2017-11-19T04:11:04.947Z,2.37
2017-11-19T04:21:08.134Z,1.80
2017-11-19T04:31:11.341Z,2.00
2017-11-19T04:41:15.272Z,2.17
2017-11-19T04:51:18.448Z,1.93
2017-11-19T05:01:21.632Z,2.50
2017-11-19T05:11:24.791Z,3.53
2017-11-19T05:21:28.006Z,2.83
2017-11-19T05:31:31.179Z,3.43
2017-11-19T05:41:35.150Z,4.40
2017-11-19T05:51:39.086Z,3.90
2017-11-19T06:01:43.010Z,4.07
2017-11-19T06:11:46.548Z,5.00
2017-11-19T06:21:49.715Z,6.07
2017-11-19T06:31:52.969Z,5.30
2017-11-19T06:41:56.924Z,5.57
2017-11-19T06:52:00.858Z,4.00
2017-11-19T07:02:04.114Z,6.25
2017-11-19T07:12:08.071Z,4.67
2017-11-19T07:22:12.030Z,5.62
2017-11-19T07:32:16.117Z,6.43
2017-11-19T07:42:19.267Z,4.60
2017-11-19T07:52:22.428Z,5.87
2017-11-19T08:02:25.610Z,5.23
2017-11-19T08:12:28.799Z,4.20
2017-11-19T08:22:32.006Z,4.78
2017-11-19T08:32:35.256Z,5.03
2017-11-19T08:42:38.413Z,4.07
2017-11-19T08:52:41.625Z,3.77
2017-11-19T09:02:44.852Z,2.67
2017-11-19T09:12:48.026Z,3.28
2017-11-19T09:22:51.229Z,4.00
2017-11-19T09:32:54.398Z,2.70
2017-11-19T09:42:57.593Z,2.93
2017-11-19T09:53:00.787Z,4.17
2017-11-19T10:03:03.974Z,2.17
2017-11-19T10:13:07.182Z,2.72
2017-11-19T10:23:10.308Z,2.73
2017-11-19T10:33:14.325Z,3.17
2017-11-19T10:43:17.479Z,3.73
2017-11-19T10:53:20.731Z,2.87
2017-11-19T11:03:23.882Z,2.63
2017-11-19T11:13:27.818Z,2.10
2017-11-19T11:23:30.971Z,3.00
2017-11-19T11:33:34.936Z,2.70
2017-11-19T11:43:38.894Z,2.60
2017-11-19T11:53:42.928Z,2.90
2017-11-19T12:03:46.096Z,2.60
2017-11-19T12:13:49.299Z,2.63
2017-11-19T12:23:52.501Z,2.30
2017-11-19T12:33:55.836Z,1.90
2017-11-19T12:43:59.178Z,2.63
2017-11-19T12:54:02.350Z,2.90
2017-11-19T13:04:05.582Z,2.90
2017-11-19T13:14:08.763Z,2.70
2017-11-19T13:24:12.748Z,2.87
2017-11-19T13:34:16.074Z,3.10
2017-11-19T13:44:19.241Z,4.05
2017-11-19T13:54:22.396Z,4.83
2017-11-19T14:04:25.559Z,3.93
2017-11-19T14:14:29.535Z,2.80
2017-11-19T14:24:32.675Z,4.40
2017-11-19T14:34:35.877Z,5.37
2017-11-19T14:44:39.067Z,4.97
2017-11-19T14:54:42.270Z,3.80
2017-11-19T15:04:46.228Z,3.60
2017-11-19T15:14:50.184Z,3.70
2017-11-19T15:24:54.278Z,3.87
2017-11-19T15:34:57.493Z,3.67
2017-11-19T15:45:00.655Z,4.10
2017-11-19T15:55:03.851Z,4.40
2017-11-19T16:05:06.994Z,4.30
2017-11-19T16:15:10.145Z,4.18
2017-11-19T16:25:14.344Z,4.43
2017-11-19T16:35:17.555Z,3.90
2017-11-19T16:45:20.737Z,3.50
2017-11-19T16:55:23.907Z,3.60
2017-11-19T17:05:27.108Z,3.75
2017-11-19T17:15:31.168Z,4.10
2017-11-19T17:25:34.361Z,3.60
2017-11-19T17:35:43.095Z,4.10
2017-11-19T17:45:46.309Z,4.23
2017-11-19T17:55:49.609Z,4.07
2017-11-19T18:05:52.793Z,3.97
2017-11-19T18:15:56.752Z,4.17
2017-11-19T18:26:00.769Z,4.23
2017-11-19T18:36:03.948Z,3.60
2017-11-19T18:46:07.948Z,4.27
2017-11-19T18:56:11.225Z,4.40
2017-11-19T19:06:14.465Z,4.72
2017-11-19T19:16:17.647Z,5.43
2017-11-19T19:26:20.861Z,5.60
2017-11-19T19:36:24.836Z,6.00
2017-11-19T19:46:28.039Z,5.90
2017-11-19T19:56:31.255Z,5.27
2017-11-19T20:06:34.465Z,6.00
2017-11-19T20:16:37.669Z,6.60
2017-11-19T20:26:41.647Z,7.50
2017-11-19T20:36:44.942Z,6.57
2017-11-19T20:46:48.142Z,8.98
2017-11-19T20:56:51.339Z,12.77
2017-11-19T21:06:55.292Z,5.50
2017-11-19T21:16:59.236Z,5.90
2017-11-19T21:27:03.150Z,7.33
2017-11-19T21:37:06.338Z,7.30
2017-11-19T21:47:10.259Z,8.33
2017-11-19T21:57:13.423Z,8.63
2017-11-19T22:07:17.362Z,7.50
2017-11-19T22:17:20.492Z,7.53
2017-11-19T22:27:23.657Z,7.00
2017-11-19T22:37:27.593Z,7.10
2017-11-19T22:47:30.745Z,7.57
2017-11-19T22:57:34.653Z,7.40
2017-11-19T23:07:37.934Z,7.60
2017-11-19T23:17:41.983Z,7.23
2017-11-19T23:27:45.158Z,8.70
2017-11-19T23:37:48.358Z,8.45
2017-11-19T23:47:51.524Z,8.73
2017-11-19T23:57:54.747Z,8.90
